Terminal Aerodrome Forecast
Issued by NWS

Home | Current Version | Previous Version | Text Only | Print | Product List | Glossary On
Versions: 1 2 3 4 5 6 7 8 9 10 11 12 13
000
FTUS42 KRAH 261723
TAFINT
TAF
KINT 261723Z 2618/2718 03010KT P6SM SCT026
     FM262300 02006KT P6SM SCT040
     FM270900 VRB02KT P6SM SCT080
     FM271500 36009KT P6SM FEW120=

USA.gov is the U.S. government's official web portal to all federal, state and local government web resources and services.